sensor_id;sensor_type;location;lat;lon;timestamp;P1;durP1;ratioP1;P2;durP2;ratioP2
4102;SDS011;2065;49.790;9.620;2022-11-20T00:01:28;30.87;;;15.60;;
4102;SDS011;2065;49.790;9.620;2022-11-20T00:03:56;51.37;;;19.57;;
4102;SDS011;2065;49.790;9.620;2022-11-20T00:06:24;33.70;;;16.97;;
4102;SDS011;2065;49.790;9.620;2022-11-20T00:08:53;49.30;;;21.33;;
4102;SDS011;2065;49.790;9.620;2022-11-20T00:11:21;56.80;;;20.60;;
4102;SDS011;2065;49.790;9.620;2022-11-20T00:13:50;40.37;;;16.80;;
4102;SDS011;2065;49.790;9.620;2022-11-20T00:16:19;38.10;;;18.30;;
4102;SDS011;2065;49.790;9.620;2022-11-20T00:18:49;36.00;;;16.83;;
4102;SDS011;2065;49.790;9.620;2022-11-20T00:21:17;33.17;;;16.80;;
4102;SDS011;2065;49.790;9.620;2022-11-20T00:23:45;39.97;;;19.17;;
4102;SDS011;2065;49.790;9.620;2022-11-20T00:26:13;51.77;;;22.37;;
4102;SDS011;2065;49.790;9.620;2022-11-20T00:28:41;41.67;;;18.90;;
4102;SDS011;2065;49.790;9.620;2022-11-20T00:31:10;43.80;;;18.23;;
4102;SDS011;2065;49.790;9.620;2022-11-20T00:33:38;59.97;;;24.50;;
4102;SDS011;2065;49.790;9.620;2022-11-20T00:36:07;26.27;;;13.70;;
4102;SDS011;2065;49.790;9.620;2022-11-20T00:38:36;36.03;;;17.60;;
4102;SDS011;2065;49.790;9.620;2022-11-20T00:41:03;35.13;;;17.30;;
4102;SDS011;2065;49.790;9.620;2022-11-20T00:43:32;41.57;;;17.90;;
4102;SDS011;2065;49.790;9.620;2022-11-20T00:45:59;39.10;;;17.20;;
4102;SDS011;2065;49.790;9.620;2022-11-20T00:48:27;36.93;;;15.90;;
4102;SDS011;2065;49.790;9.620;2022-11-20T00:50:54;36.27;;;15.97;;
4102;SDS011;2065;49.790;9.620;2022-11-20T00:53:23;31.10;;;16.30;;
4102;SDS011;2065;49.790;9.620;2022-11-20T00:55:54;32.43;;;15.10;;
4102;SDS011;2065;49.790;9.620;2022-11-20T00:58:22;31.27;;;15.97;;
4102;SDS011;2065;49.790;9.620;2022-11-20T01:00:49;39.10;;;18.47;;
4102;SDS011;2065;49.790;9.620;2022-11-20T01:03:16;32.33;;;15.07;;
4102;SDS011;2065;49.790;9.620;2022-11-20T01:05:44;31.57;;;15.47;;
4102;SDS011;2065;49.790;9.620;2022-11-20T01:08:11;34.73;;;17.67;;
4102;SDS011;2065;49.790;9.620;2022-11-20T01:10:39;31.77;;;15.60;;
4102;SDS011;2065;49.790;9.620;2022-11-20T01:13:07;36.87;;;16.70;;
4102;SDS011;2065;49.790;9.620;2022-11-20T01:15:51;33.83;;;16.47;;
4102;SDS011;2065;49.790;9.620;2022-11-20T01:18:18;33.30;;;15.90;;
4102;SDS011;2065;49.790;9.620;2022-11-20T01:20:45;29.87;;;16.00;;
4102;SDS011;2065;49.790;9.620;2022-11-20T01:23:12;29.47;;;14.47;;
4102;SDS011;2065;49.790;9.620;2022-11-20T01:25:41;29.53;;;15.40;;
4102;SDS011;2065;49.790;9.620;2022-11-20T01:28:07;34.23;;;16.47;;
4102;SDS011;2065;49.790;9.620;2022-11-20T01:30:34;36.63;;;16.50;;
4102;SDS011;2065;49.790;9.620;2022-11-20T01:33:01;31.83;;;16.00;;
4102;SDS011;2065;49.790;9.620;2022-11-20T01:35:28;31.33;;;16.50;;
4102;SDS011;2065;49.790;9.620;2022-11-20T01:37:55;34.33;;;16.70;;
4102;SDS011;2065;49.790;9.620;2022-11-20T01:40:22;34.70;;;16.07;;
4102;SDS011;2065;49.790;9.620;2022-11-20T01:42:53;32.40;;;14.77;;
4102;SDS011;2065;49.790;9.620;2022-11-20T01:45:58;29.63;;;15.03;;
4102;SDS011;2065;49.790;9.620;2022-11-20T01:48:32;33.63;;;15.27;;
4102;SDS011;2065;49.790;9.620;2022-11-20T01:51:03;31.93;;;16.63;;
4102;SDS011;2065;49.790;9.620;2022-11-20T01:53:33;40.83;;;17.97;;
4102;SDS011;2065;49.790;9.620;2022-11-20T01:56:03;36.90;;;16.20;;
4102;SDS011;2065;49.790;9.620;2022-11-20T01:58:35;42.83;;;20.27;;
4102;SDS011;2065;49.790;9.620;2022-11-20T02:01:08;40.73;;;18.97;;
4102;SDS011;2065;49.790;9.620;2022-11-20T02:03:35;41.03;;;18.43;;
4102;SDS011;2065;49.790;9.620;2022-11-20T02:06:04;39.57;;;17.40;;
4102;SDS011;2065;49.790;9.620;2022-11-20T02:08:37;39.33;;;17.40;;
4102;SDS011;2065;49.790;9.620;2022-11-20T02:11:05;34.20;;;16.17;;
4102;SDS011;2065;49.790;9.620;2022-11-20T02:13:33;40.20;;;18.37;;
4102;SDS011;2065;49.790;9.620;2022-11-20T02:16:11;34.63;;;16.20;;
4102;SDS011;2065;49.790;9.620;2022-11-20T02:18:42;35.90;;;16.77;;
4102;SDS011;2065;49.790;9.620;2022-11-20T02:21:13;35.13;;;17.80;;
4102;SDS011;2065;49.790;9.620;2022-11-20T02:23:54;35.73;;;16.70;;
4102;SDS011;2065;49.790;9.620;2022-11-20T02:26:34;32.40;;;15.10;;
4102;SDS011;2065;49.790;9.620;2022-11-20T02:29:05;32.80;;;15.57;;
4102;SDS011;2065;49.790;9.620;2022-11-20T02:31:36;32.00;;;16.47;;
4102;SDS011;2065;49.790;9.620;2022-11-20T02:34:05;33.30;;;16.80;;
4102;SDS011;2065;49.790;9.620;2022-11-20T02:36:32;35.77;;;15.87;;
4102;SDS011;2065;49.790;9.620;2022-11-20T02:39:02;33.43;;;16.60;;
4102;SDS011;2065;49.790;9.620;2022-11-20T02:41:30;36.63;;;16.33;;
4102;SDS011;2065;49.790;9.620;2022-11-20T02:43:58;35.73;;;16.80;;
4102;SDS011;2065;49.790;9.620;2022-11-20T02:46:26;37.60;;;18.07;;
4102;SDS011;2065;49.790;9.620;2022-11-20T02:48:54;33.67;;;14.87;;
4102;SDS011;2065;49.790;9.620;2022-11-20T02:51:21;33.93;;;16.50;;
4102;SDS011;2065;49.790;9.620;2022-11-20T02:53:49;32.30;;;16.40;;
4102;SDS011;2065;49.790;9.620;2022-11-20T02:56:17;30.13;;;16.47;;
4102;SDS011;2065;49.790;9.620;2022-11-20T02:58:44;35.47;;;15.90;;
4102;SDS011;2065;49.790;9.620;2022-11-20T03:01:11;33.03;;;16.63;;
4102;SDS011;2065;49.790;9.620;2022-11-20T03:03:39;33.70;;;18.47;;
4102;SDS011;2065;49.790;9.620;2022-11-20T03:06:06;37.57;;;17.97;;
4102;SDS011;2065;49.790;9.620;2022-11-20T03:08:34;34.60;;;15.73;;
4102;SDS011;2065;49.790;9.620;2022-11-20T03:11:05;35.77;;;14.67;;
4102;SDS011;2065;49.790;9.620;2022-11-20T03:13:34;39.10;;;17.27;;
4102;SDS011;2065;49.790;9.620;2022-11-20T03:16:09;34.70;;;16.73;;
4102;SDS011;2065;49.790;9.620;2022-11-20T03:18:38;31.83;;;15.13;;
4102;SDS011;2065;49.790;9.620;2022-11-20T03:21:06;38.00;;;16.23;;
4102;SDS011;2065;49.790;9.620;2022-11-20T03:23:33;31.90;;;14.23;;
4102;SDS011;2065;49.790;9.620;2022-11-20T03:26:09;39.10;;;16.50;;
4102;SDS011;2065;49.790;9.620;2022-11-20T03:28:38;32.47;;;14.90;;
4102;SDS011;2065;49.790;9.620;2022-11-20T03:31:06;30.87;;;15.53;;
4102;SDS011;2065;49.790;9.620;2022-11-20T03:33:34;40.70;;;17.20;;
4102;SDS011;2065;49.790;9.620;2022-11-20T03:36:02;41.17;;;16.43;;
4102;SDS011;2065;49.790;9.620;2022-11-20T03:38:30;32.50;;;15.57;;
4102;SDS011;2065;49.790;9.620;2022-11-20T03:40:58;35.77;;;15.97;;
4102;SDS011;2065;49.790;9.620;2022-11-20T03:43:26;35.27;;;15.43;;
4102;SDS011;2065;49.790;9.620;2022-11-20T03:45:55;37.80;;;16.70;;
4102;SDS011;2065;49.790;9.620;2022-11-20T03:48:23;31.00;;;15.53;;
4102;SDS011;2065;49.790;9.620;2022-11-20T03:50:50;33.50;;;16.30;;
4102;SDS011;2065;49.790;9.620;2022-11-20T03:53:18;37.90;;;16.30;;
4102;SDS011;2065;49.790;9.620;2022-11-20T03:55:45;33.50;;;17.70;;
4102;SDS011;2065;49.790;9.620;2022-11-20T03:58:16;28.60;;;14.77;;
4102;SDS011;2065;49.790;9.620;2022-11-20T04:00:43;32.20;;;16.13;;
4102;SDS011;2065;49.790;9.620;2022-11-20T04:03:11;37.77;;;16.43;;
4102;SDS011;2065;49.790;9.620;2022-11-20T04:05:38;36.63;;;16.60;;
4102;SDS011;2065;49.790;9.620;2022-11-20T04:08:05;34.93;;;16.07;;
4102;SDS011;2065;49.790;9.620;2022-11-20T04:10:32;36.00;;;16.43;;
4102;SDS011;2065;49.790;9.620;2022-11-20T04:12:59;32.27;;;15.37;;
4102;SDS011;2065;49.790;9.620;2022-11-20T04:15:26;34.27;;;14.67;;
4102;SDS011;2065;49.790;9.620;2022-11-20T04:17:53;38.53;;;16.33;;
4102;SDS011;2065;49.790;9.620;2022-11-20T04:20:22;30.30;;;15.00;;
4102;SDS011;2065;49.790;9.620;2022-11-20T04:22:49;33.80;;;15.70;;
4102;SDS011;2065;49.790;9.620;2022-11-20T04:25:19;32.30;;;14.37;;
4102;SDS011;2065;49.790;9.620;2022-11-20T04:27:46;35.13;;;15.30;;
4102;SDS011;2065;49.790;9.620;2022-11-20T04:30:13;37.63;;;15.27;;
4102;SDS011;2065;49.790;9.620;2022-11-20T04:32:40;33.73;;;15.53;;
4102;SDS011;2065;49.790;9.620;2022-11-20T04:35:07;36.37;;;15.20;;
4102;SDS011;2065;49.790;9.620;2022-11-20T04:37:36;26.83;;;15.60;;
4102;SDS011;2065;49.790;9.620;2022-11-20T04:40:03;39.93;;;16.27;;
4102;SDS011;2065;49.790;9.620;2022-11-20T04:42:31;29.20;;;14.00;;
4102;SDS011;2065;49.790;9.620;2022-11-20T04:44:58;33.87;;;14.17;;
4102;SDS011;2065;49.790;9.620;2022-11-20T04:47:25;37.30;;;16.37;;
4102;SDS011;2065;49.790;9.620;2022-11-20T04:49:52;34.93;;;14.90;;
4102;SDS011;2065;49.790;9.620;2022-11-20T04:52:19;38.27;;;16.17;;
4102;SDS011;2065;49.790;9.620;2022-11-20T04:54:47;37.63;;;15.87;;
4102;SDS011;2065;49.790;9.620;2022-11-20T04:57:15;30.63;;;14.47;;
4102;SDS011;2065;49.790;9.620;2022-11-20T04:59:42;35.00;;;14.13;;
4102;SDS011;2065;49.790;9.620;2022-11-20T05:02:09;40.83;;;18.13;;
4102;SDS011;2065;49.790;9.620;2022-11-20T05:04:36;35.63;;;15.53;;
4102;SDS011;2065;49.790;9.620;2022-11-20T05:07:03;29.00;;;14.47;;
4102;SDS011;2065;49.790;9.620;2022-11-20T05:09:30;29.20;;;14.40;;
4102;SDS011;2065;49.790;9.620;2022-11-20T05:11:59;31.70;;;14.60;;
4102;SDS011;2065;49.790;9.620;2022-11-20T05:14:26;36.87;;;16.00;;
4102;SDS011;2065;49.790;9.620;2022-11-20T05:16:53;32.20;;;15.53;;
4102;SDS011;2065;49.790;9.620;2022-11-20T05:19:20;28.60;;;15.13;;
4102;SDS011;2065;49.790;9.620;2022-11-20T05:21:47;32.70;;;13.90;;
4102;SDS011;2065;49.790;9.620;2022-11-20T05:24:14;32.97;;;16.67;;
4102;SDS011;2065;49.790;9.620;2022-11-20T05:26:41;33.60;;;14.80;;
4102;SDS011;2065;49.790;9.620;2022-11-20T05:29:10;33.60;;;16.80;;
4102;SDS011;2065;49.790;9.620;2022-11-20T05:31:38;35.73;;;16.50;;
4102;SDS011;2065;49.790;9.620;2022-11-20T05:34:06;35.20;;;16.90;;
4102;SDS011;2065;49.790;9.620;2022-11-20T05:36:33;28.47;;;16.20;;
4102;SDS011;2065;49.790;9.620;2022-11-20T05:39:00;30.63;;;14.90;;
4102;SDS011;2065;49.790;9.620;2022-11-20T05:41:27;33.20;;;15.30;;
4102;SDS011;2065;49.790;9.620;2022-11-20T05:43:55;48.27;;;25.30;;
4102;SDS011;2065;49.790;9.620;2022-11-20T05:46:24;35.80;;;17.57;;
4102;SDS011;2065;49.790;9.620;2022-11-20T05:48:52;37.50;;;16.00;;
4102;SDS011;2065;49.790;9.620;2022-11-20T05:51:19;32.57;;;15.80;;
4102;SDS011;2065;49.790;9.620;2022-11-20T05:53:46;32.13;;;15.47;;
4102;SDS011;2065;49.790;9.620;2022-11-20T05:56:14;33.13;;;16.27;;
4102;SDS011;2065;49.790;9.620;2022-11-20T05:58:43;37.47;;;16.00;;
4102;SDS011;2065;49.790;9.620;2022-11-20T06:01:12;39.13;;;17.00;;
4102;SDS011;2065;49.790;9.620;2022-11-20T06:03:43;31.20;;;16.40;;
4102;SDS011;2065;49.790;9.620;2022-11-20T06:06:12;30.37;;;15.87;;
4102;SDS011;2065;49.790;9.620;2022-11-20T06:08:40;37.20;;;16.70;;
4102;SDS011;2065;49.790;9.620;2022-11-20T06:11:08;35.77;;;16.37;;
4102;SDS011;2065;49.790;9.620;2022-11-20T06:13:37;35.40;;;15.97;;
4102;SDS011;2065;49.790;9.620;2022-11-20T06:16:04;35.97;;;15.73;;
4102;SDS011;2065;49.790;9.620;2022-11-20T06:18:31;29.50;;;15.27;;
4102;SDS011;2065;49.790;9.620;2022-11-20T06:21:01;34.77;;;15.77;;
4102;SDS011;2065;49.790;9.620;2022-11-20T06:23:29;39.33;;;16.40;;
4102;SDS011;2065;49.790;9.620;2022-11-20T06:25:58;31.73;;;15.63;;
4102;SDS011;2065;49.790;9.620;2022-11-20T06:28:28;34.33;;;16.40;;
4102;SDS011;2065;49.790;9.620;2022-11-20T06:30:55;39.50;;;17.70;;
4102;SDS011;2065;49.790;9.620;2022-11-20T06:33:23;39.90;;;16.20;;
4102;SDS011;2065;49.790;9.620;2022-11-20T06:35:50;30.97;;;16.80;;
4102;SDS011;2065;49.790;9.620;2022-11-20T06:38:19;31.27;;;16.07;;
4102;SDS011;2065;49.790;9.620;2022-11-20T06:40:46;42.33;;;20.77;;
4102;SDS011;2065;49.790;9.620;2022-11-20T06:43:13;44.47;;;17.87;;
4102;SDS011;2065;49.790;9.620;2022-11-20T06:45:40;48.63;;;18.43;;
4102;SDS011;2065;49.790;9.620;2022-11-20T06:48:08;48.50;;;20.60;;
4102;SDS011;2065;49.790;9.620;2022-11-20T06:50:35;33.93;;;17.57;;
4102;SDS011;2065;49.790;9.620;2022-11-20T06:53:03;34.93;;;15.80;;
4102;SDS011;2065;49.790;9.620;2022-11-20T06:55:32;36.53;;;16.20;;
4102;SDS011;2065;49.790;9.620;2022-11-20T06:57:59;44.77;;;19.20;;
4102;SDS011;2065;49.790;9.620;2022-11-20T07:00:26;37.10;;;16.37;;
4102;SDS011;2065;49.790;9.620;2022-11-20T07:02:53;44.50;;;18.37;;
4102;SDS011;2065;49.790;9.620;2022-11-20T07:05:20;34.47;;;16.50;;
4102;SDS011;2065;49.790;9.620;2022-11-20T07:07:47;34.87;;;16.57;;
4102;SDS011;2065;49.790;9.620;2022-11-20T07:10:14;49.20;;;17.20;;
4102;SDS011;2065;49.790;9.620;2022-11-20T07:12:48;33.90;;;16.47;;
4102;SDS011;2065;49.790;9.620;2022-11-20T07:15:16;44.20;;;17.70;;
4102;SDS011;2065;49.790;9.620;2022-11-20T07:17:43;34.17;;;17.40;;
4102;SDS011;2065;49.790;9.620;2022-11-20T07:20:10;43.67;;;17.67;;
4102;SDS011;2065;49.790;9.620;2022-11-20T07:22:37;44.77;;;17.47;;
4102;SDS011;2065;49.790;9.620;2022-11-20T07:25:05;37.23;;;18.40;;
4102;SDS011;2065;49.790;9.620;2022-11-20T07:27:32;37.63;;;17.80;;
4102;SDS011;2065;49.790;9.620;2022-11-20T07:30:01;37.40;;;17.50;;
4102;SDS011;2065;49.790;9.620;2022-11-20T07:32:28;27.87;;;15.20;;
4102;SDS011;2065;49.790;9.620;2022-11-20T07:34:55;31.93;;;14.93;;
4102;SDS011;2065;49.790;9.620;2022-11-20T07:37:22;32.47;;;16.23;;
4102;SDS011;2065;49.790;9.620;2022-11-20T07:39:49;34.17;;;16.80;;
4102;SDS011;2065;49.790;9.620;2022-11-20T07:42:16;35.27;;;18.20;;
4102;SDS011;2065;49.790;9.620;2022-11-20T07:44:43;36.67;;;17.10;;
4102;SDS011;2065;49.790;9.620;2022-11-20T07:47:11;38.07;;;17.30;;
4102;SDS011;2065;49.790;9.620;2022-11-20T07:49:38;53.70;;;25.70;;
4102;SDS011;2065;49.790;9.620;2022-11-20T07:52:05;45.40;;;20.57;;
4102;SDS011;2065;49.790;9.620;2022-11-20T07:54:32;38.57;;;19.20;;
4102;SDS011;2065;49.790;9.620;2022-11-20T07:56:59;36.53;;;19.20;;
4102;SDS011;2065;49.790;9.620;2022-11-20T07:59:26;51.43;;;20.77;;
4102;SDS011;2065;49.790;9.620;2022-11-20T08:01:53;40.63;;;18.10;;
4102;SDS011;2065;49.790;9.620;2022-11-20T08:04:22;39.30;;;16.43;;
4102;SDS011;2065;49.790;9.620;2022-11-20T08:06:49;41.10;;;17.97;;
4102;SDS011;2065;49.790;9.620;2022-11-20T08:09:17;42.03;;;18.33;;
4102;SDS011;2065;49.790;9.620;2022-11-20T08:11:44;49.60;;;22.13;;
4102;SDS011;2065;49.790;9.620;2022-11-20T08:14:30;41.30;;;18.00;;
4102;SDS011;2065;49.790;9.620;2022-11-20T08:16:57;36.57;;;17.73;;
4102;SDS011;2065;49.790;9.620;2022-11-20T08:19:26;38.63;;;17.50;;
4102;SDS011;2065;49.790;9.620;2022-11-20T08:21:53;40.23;;;16.80;;
4102;SDS011;2065;49.790;9.620;2022-11-20T08:24:21;44.93;;;17.40;;
4102;SDS011;2065;49.790;9.620;2022-11-20T08:26:50;32.30;;;15.00;;
4102;SDS011;2065;49.790;9.620;2022-11-20T08:29:17;29.90;;;14.80;;
4102;SDS011;2065;49.790;9.620;2022-11-20T08:31:44;46.10;;;17.93;;
4102;SDS011;2065;49.790;9.620;2022-11-20T08:34:11;35.00;;;16.40;;
4102;SDS011;2065;49.790;9.620;2022-11-20T08:36:39;27.00;;;13.03;;
4102;SDS011;2065;49.790;9.620;2022-11-20T08:39:06;40.23;;;15.60;;
4102;SDS011;2065;49.790;9.620;2022-11-20T08:41:33;31.83;;;15.30;;
4102;SDS011;2065;49.790;9.620;2022-11-20T08:44:02;32.40;;;15.00;;
4102;SDS011;2065;49.790;9.620;2022-11-20T08:46:32;33.03;;;17.03;;
4102;SDS011;2065;49.790;9.620;2022-11-20T08:49:01;34.67;;;15.83;;
4102;SDS011;2065;49.790;9.620;2022-11-20T08:51:28;36.27;;;17.47;;
4102;SDS011;2065;49.790;9.620;2022-11-20T08:53:57;31.27;;;13.03;;
4102;SDS011;2065;49.790;9.620;2022-11-20T08:56:24;37.10;;;18.00;;
4102;SDS011;2065;49.790;9.620;2022-11-20T08:58:51;35.67;;;14.87;;
4102;SDS011;2065;49.790;9.620;2022-11-20T09:01:18;27.03;;;14.80;;
4102;SDS011;2065;49.790;9.620;2022-11-20T09:03:46;41.47;;;20.87;;
4102;SDS011;2065;49.790;9.620;2022-11-20T09:06:13;32.87;;;17.07;;
4102;SDS011;2065;49.790;9.620;2022-11-20T09:08:41;41.10;;;17.70;;
4102;SDS011;2065;49.790;9.620;2022-11-20T09:11:10;28.83;;;15.03;;
4102;SDS011;2065;49.790;9.620;2022-11-20T09:13:37;41.37;;;18.47;;
4102;SDS011;2065;49.790;9.620;2022-11-20T09:16:04;66.07;;;31.53;;
4102;SDS011;2065;49.790;9.620;2022-11-20T09:18:33;36.07;;;19.67;;
4102;SDS011;2065;49.790;9.620;2022-11-20T09:21:03;27.80;;;13.77;;
4102;SDS011;2065;49.790;9.620;2022-11-20T09:23:32;28.20;;;13.77;;
4102;SDS011;2065;49.790;9.620;2022-11-20T09:26:01;69.10;;;31.00;;
4102;SDS011;2065;49.790;9.620;2022-11-20T09:28:31;28.80;;;16.00;;
4102;SDS011;2065;49.790;9.620;2022-11-20T09:30:58;29.63;;;16.43;;
4102;SDS011;2065;49.790;9.620;2022-11-20T09:33:25;31.63;;;15.80;;
4102;SDS011;2065;49.790;9.620;2022-11-20T09:35:53;33.23;;;17.43;;
4102;SDS011;2065;49.790;9.620;2022-11-20T09:38:20;30.27;;;13.40;;
4102;SDS011;2065;49.790;9.620;2022-11-20T09:40:49;25.60;;;13.20;;
4102;SDS011;2065;49.790;9.620;2022-11-20T09:43:21;26.50;;;13.23;;
4102;SDS011;2065;49.790;9.620;2022-11-20T09:45:58;70.17;;;34.00;;
4102;SDS011;2065;49.790;9.620;2022-11-20T09:48:37;37.33;;;22.17;;
4102;SDS011;2065;49.790;9.620;2022-11-20T09:51:17;31.70;;;15.40;;
4102;SDS011;2065;49.790;9.620;2022-11-20T09:53:57;27.90;;;12.50;;
4102;SDS011;2065;49.790;9.620;2022-11-20T09:56:33;24.00;;;12.10;;
4102;SDS011;2065;49.790;9.620;2022-11-20T09:59:02;27.73;;;12.10;;
4102;SDS011;2065;49.790;9.620;2022-11-20T10:01:35;24.27;;;9.90;;
4102;SDS011;2065;49.790;9.620;2022-11-20T10:04:09;22.73;;;9.87;;
4102;SDS011;2065;49.790;9.620;2022-11-20T10:06:41;18.87;;;10.60;;
4102;SDS011;2065;49.790;9.620;2022-11-20T10:09:16;20.40;;;10.80;;
4102;SDS011;2065;49.790;9.620;2022-11-20T10:11:51;40.00;;;26.30;;
4102;SDS011;2065;49.790;9.620;2022-11-20T10:14:29;15.43;;;9.57;;
4102;SDS011;2065;49.790;9.620;2022-11-20T10:17:08;20.10;;;12.53;;
4102;SDS011;2065;49.790;9.620;2022-11-20T10:19:52;18.17;;;10.20;;
4102;SDS011;2065;49.790;9.620;2022-11-20T10:22:32;19.73;;;10.73;;
4102;SDS011;2065;49.790;9.620;2022-11-20T10:25:11;25.17;;;10.07;;
4102;SDS011;2065;49.790;9.620;2022-11-20T10:27:45;25.87;;;11.23;;
4102;SDS011;2065;49.790;9.620;2022-11-20T10:30:26;19.57;;;9.40;;
4102;SDS011;2065;49.790;9.620;2022-11-20T10:32:58;21.10;;;12.10;;
4102;SDS011;2065;49.790;9.620;2022-11-20T10:35:32;18.63;;;10.67;;
4102;SDS011;2065;49.790;9.620;2022-11-20T10:38:05;18.20;;;8.50;;
4102;SDS011;2065;49.790;9.620;2022-11-20T10:40:38;18.10;;;9.67;;
4102;SDS011;2065;49.790;9.620;2022-11-20T10:43:08;24.73;;;12.40;;
4102;SDS011;2065;49.790;9.620;2022-11-20T10:45:43;17.63;;;10.27;;
4102;SDS011;2065;49.790;9.620;2022-11-20T10:48:22;21.77;;;11.07;;
4102;SDS011;2065;49.790;9.620;2022-11-20T10:51:03;26.17;;;10.30;;
4102;SDS011;2065;49.790;9.620;2022-11-20T10:53:43;20.27;;;10.20;;
4102;SDS011;2065;49.790;9.620;2022-11-20T10:56:34;17.23;;;10.30;;
4102;SDS011;2065;49.790;9.620;2022-11-20T10:59:15;19.80;;;11.53;;
4102;SDS011;2065;49.790;9.620;2022-11-20T11:02:14;16.50;;;10.10;;
4102;SDS011;2065;49.790;9.620;2022-11-20T11:04:47;23.17;;;10.93;;
4102;SDS011;2065;49.790;9.620;2022-11-20T11:07:16;17.17;;;11.13;;
4102;SDS011;2065;49.790;9.620;2022-11-20T11:09:47;17.67;;;9.60;;
4102;SDS011;2065;49.790;9.620;2022-11-20T11:12:16;19.80;;;10.50;;
4102;SDS011;2065;49.790;9.620;2022-11-20T11:14:48;18.53;;;9.77;;
4102;SDS011;2065;49.790;9.620;2022-11-20T11:17:26;28.30;;;18.30;;
4102;SDS011;2065;49.790;9.620;2022-11-20T11:22:45;19.90;;;10.80;;
4102;SDS011;2065;49.790;9.620;2022-11-20T11:25:21;16.90;;;8.70;;
4102;SDS011;2065;49.790;9.620;2022-11-20T11:27:54;20.23;;;9.67;;
4102;SDS011;2065;49.790;9.620;2022-11-20T11:30:23;20.07;;;10.13;;
4102;SDS011;2065;49.790;9.620;2022-11-20T11:33:01;18.93;;;10.27;;
4102;SDS011;2065;49.790;9.620;2022-11-20T11:35:31;19.13;;;10.27;;
4102;SDS011;2065;49.790;9.620;2022-11-20T11:38:03;16.30;;;9.17;;
4102;SDS011;2065;49.790;9.620;2022-11-20T11:40:32;16.00;;;9.90;;
4102;SDS011;2065;49.790;9.620;2022-11-20T11:43:02;14.53;;;8.67;;
4102;SDS011;2065;49.790;9.620;2022-11-20T11:45:52;14.70;;;9.87;;
4102;SDS011;2065;49.790;9.620;2022-11-20T11:48:19;17.40;;;10.00;;
4102;SDS011;2065;49.790;9.620;2022-11-20T11:50:49;19.73;;;10.97;;
4102;SDS011;2065;49.790;9.620;2022-11-20T11:53:17;20.57;;;10.73;;
4102;SDS011;2065;49.790;9.620;2022-11-20T11:55:47;18.60;;;10.40;;
4102;SDS011;2065;49.790;9.620;2022-11-20T11:58:31;19.40;;;10.43;;
4102;SDS011;2065;49.790;9.620;2022-11-20T12:01:07;15.97;;;9.83;;
4102;SDS011;2065;49.790;9.620;2022-11-20T12:03:44;15.93;;;8.90;;
4102;SDS011;2065;49.790;9.620;2022-11-20T12:06:21;14.77;;;8.90;;
4102;SDS011;2065;49.790;9.620;2022-11-20T12:08:50;15.50;;;9.77;;
4102;SDS011;2065;49.790;9.620;2022-11-20T12:11:23;17.57;;;8.20;;
4102;SDS011;2065;49.790;9.620;2022-11-20T12:13:57;18.30;;;9.10;;
4102;SDS011;2065;49.790;9.620;2022-11-20T12:16:30;18.80;;;10.80;;
4102;SDS011;2065;49.790;9.620;2022-11-20T12:19:01;18.80;;;11.47;;
4102;SDS011;2065;49.790;9.620;2022-11-20T12:21:33;13.80;;;9.03;;
4102;SDS011;2065;49.790;9.620;2022-11-20T12:24:20;17.43;;;10.27;;
4102;SDS011;2065;49.790;9.620;2022-11-20T12:27:01;18.03;;;9.10;;
4102;SDS011;2065;49.790;9.620;2022-11-20T12:29:43;31.10;;;15.10;;
4102;SDS011;2065;49.790;9.620;2022-11-20T12:32:25;31.97;;;16.53;;
4102;SDS011;2065;49.790;9.620;2022-11-20T12:35:11;25.30;;;13.90;;
4102;SDS011;2065;49.790;9.620;2022-11-20T12:37:51;18.07;;;12.87;;
4102;SDS011;2065;49.790;9.620;2022-11-20T12:40:28;15.93;;;9.50;;
4102;SDS011;2065;49.790;9.620;2022-11-20T12:43:05;16.00;;;10.27;;
4102;SDS011;2065;49.790;9.620;2022-11-20T12:48:53;17.77;;;9.60;;
4102;SDS011;2065;49.790;9.620;2022-11-20T12:51:51;18.47;;;10.13;;
4102;SDS011;2065;49.790;9.620;2022-11-20T12:57:24;18.53;;;10.63;;
4102;SDS011;2065;49.790;9.620;2022-11-20T13:00:07;22.67;;;10.73;;
4102;SDS011;2065;49.790;9.620;2022-11-20T13:02:40;17.70;;;9.33;;
4102;SDS011;2065;49.790;9.620;2022-11-20T13:05:27;16.50;;;9.90;;
4102;SDS011;2065;49.790;9.620;2022-11-20T13:08:03;20.30;;;11.00;;
4102;SDS011;2065;49.790;9.620;2022-11-20T13:10:38;33.37;;;21.43;;
4102;SDS011;2065;49.790;9.620;2022-11-20T13:13:11;41.50;;;18.87;;
4102;SDS011;2065;49.790;9.620;2022-11-20T13:15:47;24.60;;;12.83;;
4102;SDS011;2065;49.790;9.620;2022-11-20T13:18:18;16.87;;;10.73;;
4102;SDS011;2065;49.790;9.620;2022-11-20T13:20:46;17.10;;;10.60;;
4102;SDS011;2065;49.790;9.620;2022-11-20T13:23:24;20.07;;;12.60;;
4102;SDS011;2065;49.790;9.620;2022-11-20T13:26:04;16.40;;;9.33;;
4102;SDS011;2065;49.790;9.620;2022-11-20T13:28:32;13.70;;;8.70;;
4102;SDS011;2065;49.790;9.620;2022-11-20T13:30:59;13.70;;;8.33;;
4102;SDS011;2065;49.790;9.620;2022-11-20T13:33:28;21.77;;;14.53;;
4102;SDS011;2065;49.790;9.620;2022-11-20T13:35:58;22.00;;;16.73;;
4102;SDS011;2065;49.790;9.620;2022-11-20T13:38:26;17.37;;;10.93;;
4102;SDS011;2065;49.790;9.620;2022-11-20T13:40:55;18.40;;;12.27;;
4102;SDS011;2065;49.790;9.620;2022-11-20T13:43:33;14.07;;;8.20;;
4102;SDS011;2065;49.790;9.620;2022-11-20T13:46:03;17.90;;;12.07;;
4102;SDS011;2065;49.790;9.620;2022-11-20T13:48:32;14.37;;;8.60;;
4102;SDS011;2065;49.790;9.620;2022-11-20T13:51:05;17.33;;;9.73;;
4102;SDS011;2065;49.790;9.620;2022-11-20T13:53:47;13.37;;;7.87;;
4102;SDS011;2065;49.790;9.620;2022-11-20T13:56:34;15.70;;;7.80;;
4102;SDS011;2065;49.790;9.620;2022-11-20T13:59:15;12.77;;;8.23;;
4102;SDS011;2065;49.790;9.620;2022-11-20T14:01:54;16.87;;;9.03;;
4102;SDS011;2065;49.790;9.620;2022-11-20T14:04:23;12.80;;;7.70;;
4102;SDS011;2065;49.790;9.620;2022-11-20T14:06:55;27.00;;;18.30;;
4102;SDS011;2065;49.790;9.620;2022-11-20T14:09:26;17.13;;;12.97;;
4102;SDS011;2065;49.790;9.620;2022-11-20T14:11:55;16.60;;;12.37;;
4102;SDS011;2065;49.790;9.620;2022-11-20T14:14:24;17.60;;;10.63;;
4102;SDS011;2065;49.790;9.620;2022-11-20T14:16:52;27.37;;;14.83;;
4102;SDS011;2065;49.790;9.620;2022-11-20T14:19:31;41.13;;;19.43;;
4102;SDS011;2065;49.790;9.620;2022-11-20T14:22:10;35.03;;;17.37;;
4102;SDS011;2065;49.790;9.620;2022-11-20T14:24:43;19.30;;;10.50;;
4102;SDS011;2065;49.790;9.620;2022-11-20T14:27:12;21.90;;;15.33;;
4102;SDS011;2065;49.790;9.620;2022-11-20T14:29:42;17.00;;;12.27;;
4102;SDS011;2065;49.790;9.620;2022-11-20T14:32:13;18.43;;;12.00;;
4102;SDS011;2065;49.790;9.620;2022-11-20T14:34:43;17.00;;;10.37;;
4102;SDS011;2065;49.790;9.620;2022-11-20T14:37:12;14.83;;;7.47;;
4102;SDS011;2065;49.790;9.620;2022-11-20T14:39:47;13.87;;;9.57;;
4102;SDS011;2065;49.790;9.620;2022-11-20T14:42:17;17.27;;;10.83;;
4102;SDS011;2065;49.790;9.620;2022-11-20T14:44:47;14.43;;;9.80;;
4102;SDS011;2065;49.790;9.620;2022-11-20T14:47:17;15.13;;;9.73;;
4102;SDS011;2065;49.790;9.620;2022-11-20T14:49:47;14.90;;;10.40;;
4102;SDS011;2065;49.790;9.620;2022-11-20T14:52:16;20.37;;;11.20;;
4102;SDS011;2065;49.790;9.620;2022-11-20T14:54:45;22.90;;;11.47;;
4102;SDS011;2065;49.790;9.620;2022-11-20T15:00:08;14.83;;;10.20;;
4102;SDS011;2065;49.790;9.620;2022-11-20T15:02:46;11.53;;;9.43;;
4102;SDS011;2065;49.790;9.620;2022-11-20T15:05:14;17.73;;;12.03;;
4102;SDS011;2065;49.790;9.620;2022-11-20T15:07:42;22.13;;;12.20;;
4102;SDS011;2065;49.790;9.620;2022-11-20T15:10:12;23.40;;;13.73;;
4102;SDS011;2065;49.790;9.620;2022-11-20T15:12:47;23.07;;;12.50;;
4102;SDS011;2065;49.790;9.620;2022-11-20T15:15:19;13.57;;;8.90;;
4102;SDS011;2065;49.790;9.620;2022-11-20T15:17:49;13.50;;;8.40;;
4102;SDS011;2065;49.790;9.620;2022-11-20T15:20:16;14.13;;;7.73;;
4102;SDS011;2065;49.790;9.620;2022-11-20T15:22:44;16.87;;;8.90;;